首页
METAR-TAF:

METAR-TAF

机场 :

肯尼思·卡翁达国际机场

路沙卡, 赞比亚

纬度: 15-19-51S, 经度: 028-27-09E, 海拔: 1152米

当前天气观测

该预报发布于28分钟前的11:00 UTC
风速9节,风向西转西南,有时为20节阵风
温度 26°C
湿度 58%
气压 1017 hPa
能见度10公里或以上
多云层高于3500英尺
雷暴

METAR: FLKK 241100Z 24009G20KT 9999 TS BKN035 26/17 Q1017

时间: 13:28 (11:28 UTC)


TAF: 丢失

超过4000个机场的气象观测和天气预报(METAR&TAF报告)。

可查询的气象台以黄色和红色小点在地图上表示。

将鼠标移到小点上方,可查看气象台名称。

然后点击查看天气观测和预报。

如需切换地图:点击带黑十字的绿色按钮放大地图;点击带横线的绿色按钮缩小地图;或者点击绿色箭头查看邻近地区的地图。


METAR-TAF: